Time;durP1;ratioP1;P1;durP2;ratioP2;P2;SDS_P1;SDS_P2;PMS_P1;PMS_P2;Temp;Humidity;BMP_temperature;BMP_pressure;BME280_temperature;BME280_humidity;BME280_pressure;Samples;Min_cycle;Max_cycle;Signal;HPM_P1;HPM_P2
2021/11/24 00:00:20;;;;;;;35.43;20.57;;;6.60;99.90;;;;;;5050846;28;20182;-65
2021/11/24 00:02:47;;;;;;;47.40;20.77;;;6.60;99.90;;;;;;5050892;28;20631;-66
2021/11/24 00:05:13;;;;;;;33.47;20.03;;;6.60;99.90;;;;;;5051460;28;20733;-65
2021/11/24 00:07:40;;;;;;;45.40;21.87;;;6.60;99.90;;;;;;5050605;28;20195;-65
2021/11/24 00:10:06;;;;;;;43.73;20.77;;;6.70;99.90;;;;;;5050379;28;20248;-66
2021/11/24 00:12:32;;;;;;;34.23;20.43;;;6.70;99.90;;;;;;5051160;28;20646;-66
2021/11/24 00:14:57;;;;;;;45.37;21.70;;;6.70;99.90;;;;;;5050562;28;20206;-65
2021/11/24 00:17:23;;;;;;;39.20;20.03;;;6.70;99.90;;;;;;5050921;28;20224;-66
2021/11/24 00:19:48;;;;;;;32.83;19.33;;;6.60;99.90;;;;;;5050572;28;20197;-65
2021/11/24 00:22:14;;;;;;;34.80;19.13;;;6.50;99.90;;;;;;5051264;28;20182;-65
2021/11/24 00:24:40;;;;;;;36.43;21.30;;;6.50;99.90;;;;;;5050414;28;20490;-66
2021/11/24 00:27:05;;;;;;;48.47;23.17;;;6.60;99.90;;;;;;5050589;28;20324;-65
2021/11/24 00:29:31;;;;;;;32.10;19.47;;;6.60;99.90;;;;;;5053176;28;20171;-65
2021/11/24 00:31:57;;;;;;;47.73;20.77;;;6.60;99.90;;;;;;5054997;28;20178;-65
2021/11/24 00:34:23;;;;;;;32.87;19.70;;;6.60;99.90;;;;;;5054825;28;20174;-65
2021/11/24 00:36:48;;;;;;;31.27;20.47;;;6.60;99.90;;;;;;5054720;28;20245;-66
2021/11/24 00:39:14;;;;;;;32.17;18.90;;;6.60;99.90;;;;;;5054494;28;20178;-66
2021/11/24 00:41:39;;;;;;;33.60;20.13;;;6.60;99.90;;;;;;5054494;28;20182;-66
2021/11/24 00:44:05;;;;;;;34.10;20.63;;;6.60;99.90;;;;;;5054865;28;20240;-65
2021/11/24 00:46:31;;;;;;;33.07;20.40;;;6.60;99.90;;;;;;5054272;28;20282;-66
2021/11/24 00:48:56;;;;;;;32.10;21.83;;;6.60;99.90;;;;;;5054421;28;20166;-65
2021/11/24 00:51:22;;;;;;;30.60;19.93;;;6.50;99.90;;;;;;5054097;28;20224;-65
2021/11/24 00:53:47;;;;;;;37.27;20.23;;;6.40;99.90;;;;;;5054571;28;20232;-66
2021/11/24 00:56:13;;;;;;;36.43;21.33;;;6.40;99.90;;;;;;5054064;28;20206;-66
2021/11/24 00:58:38;;;;;;;33.37;19.70;;;6.50;99.90;;;;;;5054663;28;20197;-65
2021/11/24 01:01:04;;;;;;;31.13;20.90;;;6.40;99.90;;;;;;5053532;28;20183;-65
2021/11/24 01:03:30;;;;;;;35.10;19.90;;;6.40;99.90;;;;;;5054240;28;20210;-66
2021/11/24 01:05:55;;;;;;;27.00;19.90;;;6.40;99.90;;;;;;5054097;28;20567;-65
2021/11/24 01:08:22;;;;;;;31.77;20.40;;;6.30;99.90;;;;;;5054311;28;20632;-66
2021/11/24 01:10:48;;;;;;;31.73;20.67;;;6.40;99.90;;;;;;5053587;28;20506;-66
2021/11/24 01:13:16;;;;;;;26.23;19.90;;;6.40;99.90;;;;;;5054085;28;20174;-65
2021/11/24 01:15:42;;;;;;;23.33;19.83;;;6.50;99.90;;;;;;5053862;28;20285;-66
2021/11/24 01:18:07;;;;;;;30.97;19.33;;;6.50;99.90;;;;;;5053927;28;20294;-65
2021/11/24 01:20:33;;;;;;;25.93;17.80;;;6.50;99.90;;;;;;5053417;28;20220;-66
2021/11/24 01:22:59;;;;;;;31.53;18.73;;;6.50;99.90;;;;;;5053835;28;20182;-66
2021/11/24 01:25:26;;;;;;;23.40;18.80;;;6.50;99.90;;;;;;5053773;28;20235;-66
2021/11/24 01:27:51;;;;;;;24.97;18.30;;;6.50;99.90;;;;;;5053585;28;20675;-66
2021/11/24 01:30:17;;;;;;;26.73;17.33;;;6.60;99.90;;;;;;5053209;28;20179;-66
2021/11/24 01:32:43;;;;;;;26.60;19.10;;;6.60;99.90;;;;;;5053699;28;20201;-65
2021/11/24 01:35:09;;;;;;;35.33;18.90;;;6.60;99.90;;;;;;5053342;28;20620;-65
2021/11/24 01:37:35;;;;;;;23.13;17.70;;;6.60;99.90;;;;;;5053597;28;20206;-66
2021/11/24 01:40:02;;;;;;;27.43;17.73;;;6.60;99.90;;;;;;5050679;28;20615;-66
2021/11/24 01:42:28;;;;;;;24.90;18.57;;;6.60;99.90;;;;;;5052539;28;20218;-66
2021/11/24 01:44:55;;;;;;;22.43;17.07;;;6.60;99.90;;;;;;5053240;28;20286;-66
2021/11/24 01:47:20;;;;;;;34.93;18.03;;;6.60;99.90;;;;;;5033628;28;20183;-66
2021/11/24 01:49:48;;;;;;;27.23;16.93;;;6.60;99.90;;;;;;5033363;28;20167;-66
2021/11/24 01:52:14;;;;;;;29.00;18.17;;;6.60;99.90;;;;;;5052277;28;20192;-65
2021/11/24 01:54:39;;;;;;;29.33;18.77;;;6.70;99.90;;;;;;5053422;28;20312;-66
2021/11/24 01:57:05;;;;;;;31.87;18.90;;;6.70;99.90;;;;;;5052508;28;20290;-65
2021/11/24 01:59:31;;;;;;;29.70;17.87;;;6.70;99.90;;;;;;5052926;28;20225;-66
2021/11/24 02:01:56;;;;;;;27.60;19.13;;;6.60;99.90;;;;;;5053464;28;20182;-66
2021/11/24 02:04:22;;;;;;;32.37;18.77;;;6.60;99.90;;;;;;5053199;28;20225;-66
2021/11/24 02:06:50;;;;;;;29.43;19.03;;;6.70;99.90;;;;;;5052601;28;20668;-65
2021/11/24 02:09:16;;;;;;;30.37;18.73;;;6.70;99.90;;;;;;5052897;28;20238;-65
2021/11/24 02:11:44;;;;;;;27.40;19.40;;;6.70;99.90;;;;;;5053286;28;20652;-66
2021/11/24 02:14:11;;;;;;;25.83;18.03;;;6.70;99.90;;;;;;5052984;28;20183;-65
2021/11/24 02:16:45;;;;;;;29.17;18.23;;;6.70;99.90;;;;;;5052789;28;20194;-65
2021/11/24 02:19:11;;;;;;;26.60;18.00;;;6.60;99.90;;;;;;5052662;28;20322;-66
2021/11/24 02:21:37;;;;;;;32.30;19.73;;;6.50;99.90;;;;;;5052581;28;20182;-66
2021/11/24 02:24:03;;;;;;;28.67;18.33;;;6.60;99.90;;;;;;5052811;28;20222;-66
2021/11/24 02:26:29;;;;;;;23.90;18.77;;;6.60;99.90;;;;;;5052668;28;20202;-66
2021/11/24 02:28:55;;;;;;;24.93;17.37;;;6.50;99.90;;;;;;5052672;28;20163;-65
2021/11/24 02:31:23;;;;;;;27.90;18.37;;;6.50;99.90;;;;;;5052556;28;20206;-65
2021/11/24 02:33:51;;;;;;;30.17;18.93;;;6.50;99.90;;;;;;5052947;28;20171;-65
2021/11/24 02:36:17;;;;;;;24.90;18.17;;;6.60;99.90;;;;;;5052076;28;20221;-65
2021/11/24 02:38:44;;;;;;;23.13;17.97;;;6.60;99.90;;;;;;5052902;28;20703;-66
2021/11/24 02:41:09;;;;;;;29.43;19.27;;;6.60;99.90;;;;;;5051629;28;20267;-66
2021/11/24 02:43:35;;;;;;;27.47;17.10;;;6.60;99.90;;;;;;5052368;28;20610;-66
2021/11/24 02:46:00;;;;;;;29.83;17.90;;;6.70;99.90;;;;;;5052161;28;20646;-66
2021/11/24 02:48:26;;;;;;;24.67;17.53;;;6.60;99.90;;;;;;5052340;28;20220;-65
2021/11/24 02:50:54;;;;;;;23.73;17.30;;;6.60;99.90;;;;;;5051468;28;20569;-66
2021/11/24 02:53:28;;;;;;;27.67;17.47;;;6.60;99.90;;;;;;5051900;28;20569;-66
2021/11/24 02:55:54;;;;;;;26.13;17.90;;;6.50;99.90;;;;;;5051946;28;20190;-66
2021/11/24 02:58:20;;;;;;;24.77;17.90;;;6.60;99.90;;;;;;5052018;28;20210;-65
2021/11/24 03:00:46;;;;;;;21.13;16.53;;;6.60;99.90;;;;;;5051961;28;20683;-66
2021/11/24 03:03:12;;;;;;;29.00;19.17;;;6.60;99.90;;;;;;5051465;28;20183;-66
2021/11/24 03:05:38;;;;;;;25.67;17.33;;;6.60;99.90;;;;;;5052132;28;20659;-66
2021/11/24 03:08:04;;;;;;;22.67;17.30;;;6.60;99.90;;;;;;5052477;28;20663;-68
2021/11/24 03:10:31;;;;;;;18.13;16.20;;;6.60;99.90;;;;;;5053135;28;20558;-69
2021/11/24 03:12:58;;;;;;;26.97;16.80;;;6.50;99.90;;;;;;5053106;28;20187;-71
2021/11/24 03:15:24;;;;;;;23.27;17.03;;;6.50;99.90;;;;;;5051889;28;20201;-68
2021/11/24 03:17:49;;;;;;;22.67;17.47;;;6.50;99.90;;;;;;5053334;28;20187;-71
2021/11/24 03:20:16;;;;;;;23.40;17.37;;;6.50;99.90;;;;;;5052929;28;20178;-68
2021/11/24 03:22:42;;;;;;;22.33;17.30;;;6.40;99.90;;;;;;5051759;28;20186;-68
2021/11/24 03:25:10;;;;;;;22.93;17.90;;;6.40;99.90;;;;;;5053583;28;20225;-70
2021/11/24 03:27:39;;;;;;;25.20;16.53;;;6.40;99.90;;;;;;5052702;28;20289;-68
2021/11/24 03:30:12;;;;;;;25.77;16.90;;;6.50;99.90;;;;;;5051632;28;20175;-70
2021/11/24 03:32:38;;;;;;;25.23;17.00;;;6.40;99.90;;;;;;5053155;28;20181;-69
2021/11/24 03:35:05;;;;;;;20.70;17.03;;;6.40;99.90;;;;;;5052802;28;20178;-69
2021/11/24 03:37:31;;;;;;;22.33;15.83;;;6.40;99.90;;;;;;5052938;28;20271;-71
2021/11/24 03:39:57;;;;;;;24.87;17.90;;;6.40;99.90;;;;;;5052712;28;20724;-68
2021/11/24 03:42:22;;;;;;;20.43;17.17;;;6.50;99.90;;;;;;5052402;28;20278;-68
2021/11/24 03:44:49;;;;;;;19.67;17.20;;;6.50;99.90;;;;;;5051474;28;20249;-72
2021/11/24 03:47:15;;;;;;;21.83;16.73;;;6.50;99.90;;;;;;5052130;28;20206;-70
2021/11/24 03:49:41;;;;;;;23.80;17.83;;;6.50;99.90;;;;;;5052451;28;20171;-71
2021/11/24 03:52:09;;;;;;;23.53;19.37;;;6.50;99.90;;;;;;5052779;28;20182;-68
2021/11/24 03:54:34;;;;;;;25.07;18.13;;;6.50;99.90;;;;;;5053092;28;20178;-68
2021/11/24 03:57:00;;;;;;;23.43;18.83;;;6.60;99.90;;;;;;5052338;28;20248;-69
2021/11/24 03:59:26;;;;;;;23.83;18.03;;;6.50;99.90;;;;;;5052560;28;20174;-68
2021/11/24 04:01:52;;;;;;;25.33;18.27;;;6.50;99.90;;;;;;5052819;28;20633;-68
2021/11/24 04:04:17;;;;;;;24.23;18.00;;;6.50;99.90;;;;;;5055008;28;20213;-71
2021/11/24 04:06:43;;;;;;;22.33;17.90;;;6.50;99.90;;;;;;5056516;28;20823;-71
2021/11/24 04:09:09;;;;;;;31.17;18.43;;;6.50;99.90;;;;;;5056225;28;20217;-69
2021/11/24 04:11:35;;;;;;;20.40;16.67;;;6.50;99.90;;;;;;5056606;28;20182;-71
2021/11/24 04:14:00;;;;;;;25.00;18.07;;;6.60;99.90;;;;;;5056584;28;20186;-70
2021/11/24 04:16:26;;;;;;;27.90;18.50;;;6.50;99.90;;;;;;5056529;28;20194;-71
2021/11/24 04:18:52;;;;;;;25.17;18.17;;;6.50;99.90;;;;;;5056406;28;20210;-71
2021/11/24 04:21:18;;;;;;;25.03;18.33;;;6.50;99.90;;;;;;5056406;28;20236;-69
2021/11/24 04:23:45;;;;;;;23.60;16.97;;;6.40;99.90;;;;;;5056648;28;20202;-68
2021/11/24 04:26:11;;;;;;;26.30;18.40;;;6.40;99.90;;;;;;5055425;28;20191;-68
2021/11/24 04:28:37;;;;;;;28.80;18.50;;;6.40;99.90;;;;;;5056020;28;20255;-67
2021/11/24 04:31:05;;;;;;;29.50;18.00;;;6.40;99.90;;;;;;5056200;28;20536;-70
2021/11/24 04:33:31;;;;;;;25.13;17.80;;;6.50;99.90;;;;;;5055000;28;20284;-67
2021/11/24 04:35:57;;;;;;;25.60;17.33;;;6.50;99.90;;;;;;5056054;28;20289;-70
2021/11/24 04:38:23;;;;;;;24.83;17.73;;;6.40;99.90;;;;;;5054965;28;20637;-71
2021/11/24 04:40:48;;;;;;;24.27;17.77;;;6.40;99.90;;;;;;5055508;28;20640;-66
2021/11/24 04:43:16;;;;;;;25.73;17.37;;;6.50;99.90;;;;;;5054388;28;20174;-66
2021/11/24 04:45:42;;;;;;;24.23;17.43;;;6.50;99.90;;;;;;5054856;28;20203;-66
2021/11/24 04:48:08;;;;;;;26.97;17.60;;;6.50;99.90;;;;;;5054455;28;20171;-66
2021/11/24 04:50:34;;;;;;;22.67;16.90;;;6.50;99.90;;;;;;5053097;28;20202;-66
2021/11/24 04:52:59;;;;;;;25.80;17.67;;;6.50;99.90;;;;;;5054336;28;20584;-66
2021/11/24 04:55:25;;;;;;;22.43;16.47;;;6.50;99.90;;;;;;5054470;28;20179;-66
2021/11/24 04:57:51;;;;;;;21.77;16.67;;;6.60;99.90;;;;;;5054303;28;20179;-66
2021/11/24 05:00:20;;;;;;;27.23;17.43;;;6.60;99.90;;;;;;5054244;28;20171;-66
2021/11/24 05:02:48;;;;;;;26.03;16.43;;;6.60;99.90;;;;;;5054386;28;20719;-66
2021/11/24 05:05:14;;;;;;;24.37;17.40;;;6.60;99.90;;;;;;5053797;28;20206;-66
2021/11/24 05:07:40;;;;;;;21.20;17.27;;;6.70;99.90;;;;;;5051677;28;20252;-66
2021/11/24 05:10:06;;;;;;;23.70;17.77;;;6.60;99.90;;;;;;5053687;28;20171;-66
2021/11/24 05:12:34;;;;;;;20.63;18.30;;;6.60;99.90;;;;;;5053674;28;20710;-66
2021/11/24 05:15:01;;;;;;;24.43;18.33;;;6.70;99.90;;;;;;5054394;28;20179;-66
2021/11/24 05:17:27;;;;;;;23.57;18.00;;;6.70;99.90;;;;;;5053654;28;20217;-66
2021/11/24 05:19:53;;;;;;;25.27;17.83;;;6.60;99.90;;;;;;5053726;28;20179;-66
2021/11/24 05:22:20;;;;;;;25.87;18.30;;;6.60;99.90;;;;;;5053760;28;20265;-66
2021/11/24 05:24:46;;;;;;;26.13;16.20;;;6.60;99.90;;;;;;5054095;28;20289;-66
2021/11/24 05:27:12;;;;;;;30.77;20.07;;;6.60;99.90;;;;;;5053033;28;20329;-66
2021/11/24 05:29:39;;;;;;;27.50;18.07;;;6.70;99.90;;;;;;5053589;28;20253;-66
2021/11/24 05:32:05;;;;;;;26.60;17.90;;;6.70;99.90;;;;;;5051819;28;20179;-66
2021/11/24 05:34:30;;;;;;;24.57;15.70;;;6.70;99.90;;;;;;5053913;28;20546;-66
2021/11/24 05:36:56;;;;;;;25.33;15.90;;;6.70;99.90;;;;;;5053553;28;20214;-66
2021/11/24 05:39:21;;;;;;;22.33;16.17;;;6.70;99.90;;;;;;5053393;28;20167;-66
2021/11/24 05:41:47;;;;;;;27.17;17.87;;;6.70;99.90;;;;;;5053624;28;20648;-66
2021/11/24 05:44:36;;;;;;;24.40;17.00;;;6.60;99.90;;;;;;5053764;28;20198;-66
2021/11/24 05:47:08;;;;;;;24.43;17.90;;;6.60;99.90;;;;;;5053323;28;20253;-66
2021/11/24 05:49:37;;;;;;;22.10;15.80;;;6.70;99.90;;;;;;5053206;28;20171;-66
2021/11/24 05:52:03;;;;;;;23.47;17.10;;;6.70;99.90;;;;;;5053645;28;20175;-66
2021/11/24 05:54:28;;;;;;;22.57;17.03;;;6.60;99.90;;;;;;5053357;28;20193;-66
2021/11/24 05:56:54;;;;;;;24.53;17.53;;;6.70;99.90;;;;;;5053363;28;20202;-66
2021/11/24 05:59:20;;;;;;;22.47;17.77;;;6.70;99.90;;;;;;5053077;28;20541;-66
2021/11/24 06:01:46;;;;;;;23.97;16.67;;;6.70;99.90;;;;;;5052944;28;20193;-66
2021/11/24 06:04:11;;;;;;;26.77;15.97;;;6.70;99.90;;;;;;5053023;28;20206;-65
2021/11/24 06:06:38;;;;;;;25.17;16.43;;;6.70;99.90;;;;;;5053219;28;20191;-66
2021/11/24 06:09:04;;;;;;;28.97;19.27;;;6.70;99.90;;;;;;5052562;28;20179;-66
2021/11/24 06:11:30;;;;;;;29.63;18.03;;;6.70;99.90;;;;;;5053024;28;20596;-66
2021/11/24 06:13:56;;;;;;;27.87;20.30;;;6.60;99.90;;;;;;5051871;28;20191;-66
2021/11/24 06:16:21;;;;;;;26.00;18.03;;;6.60;99.90;;;;;;5052682;28;20210;-66
2021/11/24 06:18:48;;;;;;;28.40;18.43;;;6.60;99.90;;;;;;5052867;28;20190;-66
2021/11/24 06:21:20;;;;;;;30.23;18.17;;;6.60;99.90;;;;;;5051320;28;20190;-66
2021/11/24 06:23:46;;;;;;;26.97;18.23;;;6.60;99.90;;;;;;5053226;28;20202;-66
2021/11/24 06:26:12;;;;;;;29.67;17.90;;;6.60;99.90;;;;;;5052356;28;20198;-66
2021/11/24 06:28:38;;;;;;;21.50;16.73;;;6.60;99.90;;;;;;5051719;28;20628;-66
2021/11/24 06:31:04;;;;;;;27.90;16.80;;;6.60;99.90;;;;;;5052444;28;20178;-66
2021/11/24 06:33:30;;;;;;;22.53;17.83;;;6.60;99.90;;;;;;5052634;28;20171;-66
2021/11/24 06:35:56;;;;;;;27.57;19.23;;;6.60;99.90;;;;;;5052530;28;20293;-66
2021/11/24 06:38:22;;;;;;;24.67;18.40;;;6.60;99.90;;;;;;5052119;28;20213;-65
2021/11/24 06:40:49;;;;;;;33.37;18.97;;;6.60;99.90;;;;;;5052341;28;20163;-65
2021/11/24 06:43:15;;;;;;;23.80;18.70;;;6.50;99.90;;;;;;5047771;28;20236;-65
2021/11/24 06:45:41;;;;;;;24.23;17.10;;;6.50;99.90;;;;;;5052220;28;20210;-65
2021/11/24 06:48:08;;;;;;;26.83;17.77;;;6.50;99.90;;;;;;5051777;28;20169;-65
2021/11/24 06:50:34;;;;;;;23.70;15.93;;;6.60;99.90;;;;;;5051904;28;20626;-66
2021/11/24 06:53:00;;;;;;;32.60;20.00;;;6.50;99.90;;;;;;5051917;28;20636;-65
2021/11/24 06:55:26;;;;;;;29.20;18.47;;;6.50;99.90;;;;;;5051866;28;20175;-66
2021/11/24 06:57:52;;;;;;;36.03;18.67;;;6.60;99.90;;;;;;5052095;28;20666;-65
2021/11/24 07:00:18;;;;;;;30.73;18.73;;;6.60;99.90;;;;;;5050003;28;20183;-65
2021/11/24 07:02:43;;;;;;;24.30;17.83;;;6.60;99.90;;;;;;5052141;28;20179;-65
2021/11/24 07:05:10;;;;;;;21.30;16.83;;;6.60;99.90;;;;;;5051388;28;20202;-65
2021/11/24 07:07:36;;;;;;;28.70;17.17;;;6.70;99.90;;;;;;5050228;28;20340;-65
2021/11/24 07:10:03;;;;;;;26.43;17.13;;;6.70;99.90;;;;;;5050375;28;20274;-65
2021/11/24 07:12:29;;;;;;;24.00;17.40;;;6.70;99.90;;;;;;5051196;28;20178;-64
2021/11/24 07:14:56;;;;;;;30.83;18.80;;;6.70;99.90;;;;;;5031428;28;20314;-65
2021/11/24 07:17:23;;;;;;;30.50;16.97;;;6.70;99.90;;;;;;5037474;28;20195;-65
2021/11/24 07:19:49;;;;;;;30.20;18.93;;;6.60;99.90;;;;;;5051798;28;20262;-66
2021/11/24 07:22:14;;;;;;;25.90;18.03;;;6.70;99.90;;;;;;5051576;28;20246;-65
2021/11/24 07:24:40;;;;;;;27.93;17.50;;;6.60;99.90;;;;;;5051653;28;20209;-65
2021/11/24 07:27:06;;;;;;;27.77;19.37;;;6.60;99.90;;;;;;5051197;28;20194;-65
2021/11/24 07:29:31;;;;;;;30.53;21.10;;;6.60;99.90;;;;;;5051262;28;20205;-65
2021/11/24 07:31:57;;;;;;;29.73;20.97;;;6.60;99.90;;;;;;5050580;28;20550;-65
2021/11/24 07:34:23;;;;;;;33.30;22.37;;;6.60;99.90;;;;;;5051215;28;20537;-65
2021/11/24 07:36:48;;;;;;;30.73;19.63;;;6.60;99.90;;;;;;5051245;28;20214;-65
2021/11/24 07:39:14;;;;;;;34.37;20.67;;;6.60;99.90;;;;;;5049984;28;20191;-66
2021/11/24 07:41:40;;;;;;;33.77;20.60;;;6.70;99.90;;;;;;5051424;28;20208;-65
2021/11/24 07:44:05;;;;;;;27.83;19.90;;;6.80;99.90;;;;;;5051038;28;20264;-64
2021/11/24 07:46:31;;;;;;;31.67;17.90;;;6.80;99.90;;;;;;5051175;28;20268;-65
2021/11/24 07:48:57;;;;;;;29.40;19.23;;;6.80;99.90;;;;;;5050970;28;20254;-65
2021/11/24 07:51:23;;;;;;;26.03;17.97;;;6.80;99.90;;;;;;5050295;28;20167;-65
2021/11/24 07:53:49;;;;;;;28.13;17.93;;;6.80;99.90;;;;;;5051210;28;20831;-65
2021/11/24 07:56:15;;;;;;;22.13;16.60;;;6.90;99.90;;;;;;5051078;28;20210;-65
2021/11/24 07:58:41;;;;;;;28.03;17.27;;;6.90;99.90;;;;;;5051068;28;20182;-65
2021/11/24 08:01:11;;;;;;;28.43;20.57;;;6.90;99.90;;;;;;5050736;28;20179;-65
2021/11/24 08:03:37;;;;;;;27.93;18.63;;;6.80;99.90;;;;;;5051190;28;20171;-65
2021/11/24 08:06:04;;;;;;;29.27;19.27;;;6.80;99.90;;;;;;5050810;28;20264;-65
2021/11/24 08:08:29;;;;;;;28.07;18.53;;;6.80;99.90;;;;;;5050982;28;20643;-65
2021/11/24 08:10:55;;;;;;;27.63;19.40;;;6.90;99.90;;;;;;5049378;28;20182;-65
2021/11/24 08:13:21;;;;;;;28.60;18.97;;;6.90;99.90;;;;;;5050883;28;20185;-65
2021/11/24 08:15:47;;;;;;;30.67;19.67;;;7.00;99.90;;;;;;5049520;28;20257;-65
2021/11/24 08:18:14;;;;;;;29.37;18.27;;;7.00;99.90;;;;;;5049699;28;20186;-65
2021/11/24 08:20:39;;;;;;;25.00;18.30;;;7.10;99.90;;;;;;5050604;28;20186;-66
2021/11/24 08:23:05;;;;;;;32.97;19.07;;;7.10;99.90;;;;;;5049579;28;20690;-66
2021/11/24 08:25:31;;;;;;;21.83;16.57;;;7.20;99.90;;;;;;5050617;28;20639;-65
2021/11/24 08:27:57;;;;;;;32.07;19.00;;;7.20;99.90;;;;;;5051056;28;20651;-64
2021/11/24 08:30:23;;;;;;;31.40;19.03;;;7.30;99.90;;;;;;5050534;28;20221;-65
2021/11/24 08:32:52;;;;;;;34.07;21.53;;;7.30;99.90;;;;;;5051267;28;20175;-64
2021/11/24 08:35:19;;;;;;;29.90;20.00;;;7.50;99.90;;;;;;5050423;28;20226;-65
2021/11/24 08:37:44;;;;;;;35.27;21.20;;;7.50;99.90;;;;;;5050854;28;20568;-66
2021/11/24 08:40:10;;;;;;;28.13;18.73;;;7.60;99.90;;;;;;5050668;28;20179;-65
2021/11/24 08:42:37;;;;;;;27.67;19.30;;;7.70;99.90;;;;;;5050615;28;20178;-65
2021/11/24 08:45:04;;;;;;;30.27;19.13;;;7.80;99.90;;;;;;5050713;28;20241;-65
2021/11/24 08:47:30;;;;;;;30.20;19.37;;;7.90;99.90;;;;;;5049712;28;20191;-65
2021/11/24 08:49:55;;;;;;;33.07;18.47;;;7.90;99.90;;;;;;5050799;28;20186;-65
2021/11/24 08:52:22;;;;;;;30.03;17.33;;;7.90;99.90;;;;;;5053965;28;20632;-65
2021/11/24 08:54:47;;;;;;;28.87;18.00;;;7.90;99.90;;;;;;5054550;28;20640;-65
2021/11/24 08:57:14;;;;;;;27.87;17.17;;;7.70;99.90;;;;;;5053955;28;20285;-64
2021/11/24 08:59:40;;;;;;;25.10;18.17;;;7.70;99.90;;;;;;5054165;28;20178;-64
2021/11/24 09:02:06;;;;;;;27.87;16.53;;;7.80;99.90;;;;;;5054092;28;20245;-65
2021/11/24 09:04:33;;;;;;;25.40;17.83;;;7.90;99.90;;;;;;5054161;28;20202;-64
2021/11/24 09:06:58;;;;;;;23.00;16.67;;;7.90;99.90;;;;;;5054017;28;20202;-65
2021/11/24 09:09:24;;;;;;;24.97;17.10;;;8.00;99.90;;;;;;5053723;28;20706;-65
2021/11/24 09:11:50;;;;;;;25.53;16.70;;;8.10;99.90;;;;;;5054170;28;20210;-64
2021/11/24 09:14:15;;;;;;;28.63;17.77;;;8.10;99.90;;;;;;5054089;28;20174;-65
2021/11/24 09:16:41;;;;;;;27.37;16.23;;;8.10;99.90;;;;;;5053934;28;20281;-65
2021/11/24 09:19:06;;;;;;;23.33;17.87;;;8.10;99.90;;;;;;5052438;28;20202;-64
2021/11/24 09:21:32;;;;;;;28.17;18.93;;;8.20;99.90;;;;;;5053625;28;20585;-64
2021/11/24 09:24:04;;;;;;;25.93;17.03;;;8.20;99.90;;;;;;5053515;28;20647;-64
2021/11/24 09:26:43;;;;;;;28.30;17.93;;;8.20;99.90;;;;;;5053678;28;20198;-65
2021/11/24 09:29:10;;;;;;;23.83;17.57;;;8.10;99.90;;;;;;5033468;28;20202;-65
2021/11/24 09:31:37;;;;;;;28.97;16.97;;;8.00;99.90;;;;;;5033850;28;20228;-65
2021/11/24 09:34:02;;;;;;;23.00;15.07;;;7.90;99.90;;;;;;5053362;28;20178;-65
2021/11/24 09:36:28;;;;;;;25.60;15.97;;;8.00;99.90;;;;;;5089547;22;20597;-67
2021/11/24 09:38:55;;;;;;;23.30;16.23;;;8.10;99.90;;;;;;5093341;28;20169;-66
2021/11/24 09:41:24;;;;;;;23.77;16.13;;;8.20;99.90;;;;;;5093643;28;20201;-67
2021/11/24 09:43:52;;;;;;;20.77;15.13;;;8.20;99.90;;;;;;5076302;28;20237;-67
2021/11/24 09:46:18;;;;;;;23.60;17.03;;;8.20;99.90;;;;;;5073435;28;20594;-66
2021/11/24 09:48:48;;;;;;;19.60;15.33;;;8.30;99.90;;;;;;5090355;28;20196;-66
2021/11/24 09:51:13;;;;;;;21.50;15.83;;;8.40;99.90;;;;;;5093182;28;20215;-66
2021/11/24 09:53:40;;;;;;;25.47;15.33;;;8.40;99.90;;;;;;5093343;28;20181;-67
2021/11/24 09:56:07;;;;;;;21.03;15.50;;;8.40;99.90;;;;;;5092904;28;20278;-66
2021/11/24 09:58:33;;;;;;;20.93;15.63;;;8.40;99.90;;;;;;5093599;28;20641;-67
2021/11/24 10:00:59;;;;;;;26.90;17.27;;;8.40;99.90;;;;;;5092023;28;20246;-67
2021/11/24 10:03:26;;;;;;;23.97;16.83;;;8.50;99.90;;;;;;5093314;28;20169;-67
2021/11/24 10:05:53;;;;;;;23.47;14.70;;;8.60;99.90;;;;;;5093582;28;20650;-67
2021/11/24 10:08:18;;;;;;;22.80;15.87;;;8.50;99.90;;;;;;5093469;28;20165;-67
2021/11/24 10:10:44;;;;;;;23.10;15.40;;;8.50;99.90;;;;;;5092789;28;20185;-65
2021/11/24 10:13:11;;;;;;;21.80;15.00;;;8.60;99.90;;;;;;5093489;28;20556;-67
2021/11/24 10:15:41;;;;;;;25.03;15.57;;;8.50;99.90;;;;;;5093322;28;20158;-66
2021/11/24 10:18:22;;;;;;;23.03;14.53;;;8.50;99.90;;;;;;5093379;28;20530;-66
2021/11/24 10:21:09;;;;;;;24.63;15.13;;;8.60;99.90;;;;;;5093176;28;20626;-67
2021/11/24 10:23:46;;;;;;;20.63;15.67;;;8.80;99.90;;;;;;5092496;28;20705;-66
2021/11/24 10:26:28;;;;;;;24.13;18.13;;;9.00;99.90;;;;;;5092856;28;20602;-66
2021/11/24 10:28:54;;;;;;;18.27;15.80;;;9.10;99.90;;;;;;5092987;28;20192;-68
2021/11/24 10:31:44;;;;;;;19.40;15.33;;;9.20;99.90;;;;;;5092435;28;20642;-66
2021/11/24 10:34:30;;;;;;;21.77;17.17;;;9.30;99.90;;;;;;5092326;28;20534;-66
2021/11/24 10:37:06;;;;;;;20.90;16.10;;;9.40;99.90;;;;;;5092479;28;20221;-67
2021/11/24 10:39:59;;;;;;;19.33;14.80;;;9.40;99.90;;;;;;5092647;28;20250;-67
2021/11/24 10:42:31;;;;;;;23.30;15.40;;;9.60;99.90;;;;;;5092668;28;20184;-67
2021/11/24 10:45:20;;;;;;;22.00;15.37;;;9.70;99.90;;;;;;5092777;28;20250;-67
2021/11/24 10:47:54;;;;;;;19.37;14.97;;;9.90;99.90;;;;;;5092246;28;20323;-67
2021/11/24 10:50:26;;;;;;;19.70;14.37;;;9.80;99.90;;;;;;5092421;28;20627;-67
2021/11/24 10:52:52;;;;;;;23.70;15.20;;;9.90;99.90;;;;;;5091919;28;20196;-66
2021/11/24 10:55:27;;;;;;;20.17;14.63;;;9.80;99.90;;;;;;5092256;28;20618;-66
2021/11/24 10:58:26;;;;;;;23.17;15.10;;;9.90;99.90;;;;;;5092089;28;20197;-67
2021/11/24 11:00:56;;;;;;;21.20;14.27;;;10.00;99.90;;;;;;5058301;28;20181;-66
2021/11/24 11:03:34;;;;;;;19.00;14.23;;;10.10;99.90;;;;;;5091416;28;20192;-66
2021/11/24 11:05:59;;;;;;;21.20;14.77;;;10.10;99.90;;;;;;5090543;28;20205;-66
2021/11/24 11:08:25;;;;;;;18.20;14.23;;;10.10;99.90;;;;;;5092555;28;20666;-67
2021/11/24 11:10:52;;;;;;;18.00;15.40;;;10.00;99.90;;;;;;5091839;28;20169;-67
2021/11/24 11:13:20;;;;;;;17.17;13.73;;;10.10;99.90;;;;;;5071362;28;20166;-67
2021/11/24 11:15:47;;;;;;;17.63;13.17;;;9.90;99.90;;;;;;5071795;28;20572;-67
2021/11/24 11:18:20;;;;;;;17.90;13.90;;;10.10;99.90;;;;;;5091214;28;20188;-67
2021/11/24 11:20:49;;;;;;;17.60;13.67;;;10.20;99.90;;;;;;5091972;28;20200;-66
2021/11/24 11:23:23;;;;;;;17.43;12.77;;;10.30;99.90;;;;;;5091524;28;20173;-67
2021/11/24 11:25:57;;;;;;;17.30;13.13;;;10.40;99.90;;;;;;5091787;28;20220;-67
2021/11/24 11:28:26;;;;;;;14.27;12.43;;;10.50;99.90;;;;;;5071639;28;20174;-66
2021/11/24 11:30:53;;;;;;;15.13;11.83;;;10.60;99.90;;;;;;5071804;28;20622;-67
2021/11/24 11:33:24;;;;;;;12.77;11.47;;;10.70;99.90;;;;;;5091259;28;20173;-66
2021/11/24 11:35:50;;;;;;;14.77;11.13;;;10.80;99.90;;;;;;5091645;28;20502;-67
2021/11/24 11:38:19;;;;;;;15.90;11.37;;;10.80;99.90;;;;;;5091545;28;20185;-67
2021/11/24 11:40:47;;;;;;;15.63;11.90;;;10.80;99.90;;;;;;5091423;28;20537;-66
2021/11/24 11:43:16;;;;;;;12.63;10.20;;;10.80;99.90;;;;;;5091238;28;20540;-67
2021/11/24 11:45:41;;;;;;;12.10;10.53;;;10.70;99.90;;;;;;5091463;28;20304;-66
2021/11/24 11:48:08;;;;;;;14.50;11.40;;;10.60;99.90;;;;;;5090881;28;20205;-66
2021/11/24 11:50:55;;;;;;;12.63;10.67;;;10.60;99.90;;;;;;5091032;28;20174;-67
2021/11/24 11:53:47;;;;;;;12.13;10.87;;;10.60;99.90;;;;;;5090108;28;20173;-66
2021/11/24 11:56:22;;;;;;;11.80;10.60;;;10.60;99.90;;;;;;5082786;28;20205;-67
2021/11/24 11:58:52;;;;;;;10.30;9.17;;;10.60;99.90;;;;;;5071396;28;20181;-67
2021/11/24 12:01:24;;;;;;;10.43;9.33;;;10.60;99.90;;;;;;5071899;28;20167;-67
2021/11/24 12:04:07;;;;;;;11.40;10.30;;;10.60;99.90;;;;;;5091873;28;20170;-67
2021/11/24 12:06:44;;;;;;;10.57;9.47;;;10.70;99.90;;;;;;5091251;28;20212;-67
2021/11/24 12:09:14;;;;;;;10.93;9.07;;;10.70;99.90;;;;;;5091168;28;20157;-67
2021/11/24 12:12:01;;;;;;;9.40;8.57;;;10.80;99.90;;;;;;5091208;28;20173;-66
2021/11/24 12:14:53;;;;;;;9.80;8.90;;;10.70;99.90;;;;;;5091491;28;20185;-67
2021/11/24 12:17:31;;;;;;;8.73;7.93;;;10.50;99.90;;;;;;5090584;28;20202;-67
2021/11/24 12:20:02;;;;;;;9.47;8.47;;;10.50;99.90;;;;;;5090873;28;20169;-67
2021/11/24 12:28:07;;;;;;;8.10;7.40;;;10.40;99.90;;;;;;5094878;28;20215;-65
2021/11/24 12:30:33;;;;;;;8.23;7.53;;;10.30;99.90;;;;;;5094326;28;20252;-67
2021/11/24 12:33:01;;;;;;;9.23;8.30;;;10.20;99.90;;;;;;5095076;28;20256;-67
2021/11/24 12:35:26;;;;;;;7.50;6.80;;;10.10;99.90;;;;;;5094136;28;20173;-66
2021/11/24 12:37:55;;;;;;;8.50;7.73;;;9.80;99.90;;;;;;5094731;28;20697;-66
2021/11/24 12:40:29;;;;;;;8.77;7.90;;;9.70;99.90;;;;;;5094553;28;20212;-66
2021/11/24 12:42:59;;;;;;;7.10;6.60;;;9.60;99.90;;;;;;5094694;28;20590;-66